Forside
METAR-TAF:

METAR-TAF

Lufthavne :

Stanton, Minnesota, USA

Breddekreds: 44-28-32N, længdekreds: 093-00-59W, højde: 280 m

Aktuelle vejr

Denne rapport blev lavet for 16 minutter siden, kl. 11:15 UTC
Vind 5 kt fra sydvest
Temperatur 2°C
Fugtighed 93%
Tryk 1005 hPa
Sigt: 3.2 km
Overskyet i en højde af 300 ft
dis

METAR: KSYN 191115Z AUTO 22005KT 2SM BR OVC003 02/01 A2968 RMK AO2 T00180013

Tid: 05:31 (11:31 UTC)


TAF: fraværende

Vejrobservationer og prognoser fra mere end 4000 lufthavne (METAR og TAF).

De gule og røde prikker repræsenterer de meteorologiske stationer.

Flyt musen over at se navnet på stationen.

Så klik over at se vejr observationer og prognoser.

At skifte det kort: Klik på de grønne knapper med et sort kors for at zoome ind; på den grønne knap med en bindestreg for at zoome ud; eller på de grønne pile for tilstødende kort.


METAR-TAF: